createdAt,value
2018-03-08T00:01:09.713Z,98845.55
2018-03-08T00:03:37.105Z,98839.15
2018-03-08T00:06:04.494Z,98840.03
2018-03-08T00:08:31.886Z,98848.31
2018-03-08T00:10:59.270Z,98849.22
2018-03-08T00:13:26.666Z,98858.84
2018-03-08T00:15:54.054Z,98860.22
2018-03-08T00:18:21.431Z,98864.58
2018-03-08T00:20:48.833Z,98862.88
2018-03-08T00:23:16.241Z,98859.02
2018-03-08T00:25:43.614Z,98868.45
2018-03-08T00:28:10.999Z,98870.70
2018-03-08T00:30:38.401Z,98874.13
2018-03-08T00:33:05.781Z,98881.59
2018-03-08T00:35:33.190Z,98869.84
2018-03-08T00:38:00.565Z,98876.68
2018-03-08T00:40:27.958Z,98880.00
2018-03-08T00:42:55.349Z,98889.97
2018-03-08T03:22:18.518Z,98953.61
2018-03-08T03:24:45.910Z,98958.10
2018-03-08T03:27:13.297Z,98957.70
2018-03-08T03:29:40.705Z,98958.52
2018-03-08T03:32:08.133Z,98959.32
2018-03-08T03:34:35.529Z,98962.38
2018-03-08T03:37:02.922Z,98959.74
2018-03-08T03:39:30.305Z,98960.56
2018-03-08T03:41:57.693Z,98966.45
2018-03-08T03:44:25.098Z,98961.47
2018-03-08T03:46:52.498Z,98961.66
2018-03-08T03:49:19.876Z,98957.33
2018-03-08T03:51:47.278Z,98965.23
2018-03-08T03:54:14.674Z,98964.30
2018-03-08T03:56:42.064Z,98966.25
2018-03-08T03:59:09.468Z,98960.56
2018-03-08T04:01:36.858Z,98968.77
2018-03-08T04:04:04.235Z,98957.80
2018-03-08T04:06:31.638Z,98961.86
2018-03-08T04:08:59.032Z,98964.49
2018-03-08T04:11:26.421Z,98965.08
2018-03-08T04:13:53.825Z,98967.22
2018-03-08T04:16:21.218Z,98964.47
2018-03-08T04:18:48.625Z,98966.06
2018-03-08T04:21:16.041Z,98957.05
2018-03-08T04:23:43.425Z,98966.98
2018-03-08T04:26:10.812Z,98972.54
2018-03-08T04:28:38.260Z,98975.65
2018-03-08T04:31:05.625Z,98978.09
2018-03-08T04:33:33.010Z,98979.08
2018-03-08T04:36:00.419Z,98984.34
2018-03-08T04:38:27.806Z,98976.14
2018-03-08T04:40:55.194Z,98969.31
2018-03-08T04:43:22.601Z,98974.47
2018-03-08T04:45:49.994Z,98968.59
2018-03-08T04:48:17.383Z,98963.16
2018-03-08T04:50:44.801Z,98974.31
2018-03-08T04:53:12.181Z,98969.23
2018-03-08T04:55:39.577Z,98972.77
2018-03-08T04:58:06.985Z,98976.86
2018-03-08T05:00:34.379Z,98982.89
2018-03-08T05:03:01.775Z,98983.77
2018-03-08T05:05:29.182Z,98983.27
2018-03-08T05:07:56.578Z,98990.50
2018-03-08T05:10:23.977Z,98990.94
2018-03-08T05:12:51.387Z,98989.73
2018-03-08T05:15:18.777Z,98988.43
2018-03-08T05:17:46.172Z,98982.25
2018-03-08T05:20:13.578Z,98985.82
2018-03-08T05:22:40.974Z,98981.34
2018-03-08T05:25:08.390Z,98979.58
2018-03-08T05:27:35.805Z,98978.10
2018-03-08T05:30:03.206Z,98977.72
2018-03-08T05:32:30.595Z,98972.61
2018-03-08T05:34:58.025Z,98988.13
2018-03-08T05:37:25.422Z,98987.47
2018-03-08T05:39:52.802Z,98989.19
2018-03-08T05:42:20.207Z,98997.34
2018-03-08T05:44:47.598Z,98992.76
2018-03-08T05:47:14.986Z,98994.02
2018-03-08T05:49:42.377Z,99003.73
2018-03-08T05:52:09.769Z,99003.44
2018-03-08T05:54:37.212Z,99009.02
2018-03-08T05:57:04.578Z,99013.17
2018-03-08T05:59:31.986Z,99016.83
2018-03-08T06:01:59.366Z,99022.84
2018-03-08T06:04:26.769Z,99024.05
2018-03-08T06:06:54.158Z,99029.62
2018-03-08T06:09:21.542Z,99026.91
2018-03-08T06:11:48.944Z,99027.90
2018-03-08T06:14:16.330Z,99032.95
2018-03-08T06:16:43.709Z,99030.95
2018-03-08T06:19:11.118Z,99034.50
2018-03-08T06:21:38.510Z,99041.91
2018-03-08T06:24:05.894Z,99037.45
2018-03-08T06:26:33.305Z,99042.15
2018-03-08T06:29:00.682Z,99033.93
2018-03-08T06:31:28.069Z,99043.06
2018-03-08T06:33:55.466Z,99038.80
2018-03-08T06:36:22.859Z,99038.18
2018-03-08T06:38:50.237Z,99042.72
2018-03-08T06:41:17.661Z,99037.55
2018-03-08T06:43:45.050Z,99029.31
2018-03-08T06:46:12.446Z,99033.89
2018-03-08T06:48:39.890Z,99036.91
2018-03-08T06:51:07.300Z,99038.22
2018-03-08T06:53:34.677Z,99034.70
2018-03-08T06:56:02.097Z,99039.69
2018-03-08T06:58:29.490Z,99035.42
2018-03-08T07:00:56.881Z,99031.48
2018-03-08T07:03:24.309Z,99031.77
2018-03-08T07:05:51.714Z,99030.95
2018-03-08T07:08:19.089Z,99024.61
2018-03-08T07:10:46.513Z,99025.34
2018-03-08T07:13:13.898Z,99026.65
2018-03-08T07:15:41.317Z,99032.08
2018-03-08T07:18:08.721Z,99023.28
2018-03-08T07:20:36.102Z,99024.39
2018-03-08T07:23:03.490Z,99028.54
2018-03-08T07:25:30.893Z,99032.38
2018-03-08T07:27:58.288Z,99032.97
2018-03-08T07:30:25.662Z,99032.36
2018-03-08T07:32:53.083Z,99038.65
2018-03-08T07:35:20.461Z,99031.23
2018-03-08T07:37:47.855Z,99031.75
2018-03-08T07:40:15.682Z,99040.17
2018-03-08T07:42:43.066Z,99048.39
2018-03-08T07:45:10.450Z,99047.36
2018-03-08T07:47:37.853Z,99053.95
2018-03-08T07:50:05.237Z,99052.15
2018-03-08T07:52:32.621Z,99054.06
2018-03-08T07:55:00.025Z,99043.07
2018-03-08T07:57:27.414Z,99042.25
2018-03-08T07:59:54.806Z,99042.03
2018-03-08T08:02:22.206Z,99034.62
2018-03-08T08:05:01.378Z,99031.88
2018-03-08T08:07:40.530Z,99034.33
2018-03-08T08:10:07.913Z,99027.73
2018-03-08T08:12:35.298Z,99022.25
2018-03-08T08:15:02.709Z,99018.70
2018-03-08T08:17:30.097Z,99019.97
2018-03-08T08:19:57.488Z,99012.52
2018-03-08T08:22:24.888Z,99015.80
2018-03-08T08:24:52.265Z,99020.19
2018-03-08T08:27:19.654Z,99014.30
2018-03-08T08:29:47.070Z,99010.87
2018-03-08T08:32:14.449Z,99006.20
2018-03-08T08:34:41.839Z,99000.03
2018-03-08T08:37:09.235Z,99000.36
2018-03-08T08:39:36.627Z,99001.89
2018-03-08T08:42:04.022Z,99006.66
2018-03-08T08:44:31.448Z,99003.02
2018-03-08T08:46:58.818Z,99001.14
2018-03-08T08:49:26.205Z,98999.08
2018-03-08T08:51:53.624Z,99007.73
2018-03-08T08:54:21.010Z,98996.61
2018-03-08T08:56:48.401Z,98990.03
2018-03-08T08:59:15.801Z,98978.78
2018-03-08T09:01:43.190Z,98986.65
2018-03-08T09:04:10.573Z,98989.77
2018-03-08T09:06:37.982Z,98988.80
2018-03-08T09:09:05.370Z,98982.92
2018-03-08T09:11:32.754Z,98982.50
2018-03-08T09:14:00.157Z,98979.87
2018-03-08T09:16:27.546Z,98981.53
2018-03-08T09:18:54.929Z,98976.75
2018-03-08T09:21:22.338Z,98979.70
2018-03-08T09:23:49.782Z,98976.79
2018-03-08T09:26:17.161Z,98974.93
2018-03-08T09:28:44.560Z,98968.22
2018-03-08T09:31:11.942Z,98962.45
2018-03-08T09:33:39.330Z,98962.39
2018-03-08T09:36:06.742Z,98966.06
2018-03-08T09:38:34.153Z,98960.68
2018-03-08T09:41:01.535Z,98962.01
2018-03-08T09:43:28.937Z,98964.11
2018-03-08T09:45:56.324Z,98961.45
2018-03-08T09:48:23.710Z,98957.56
2018-03-08T09:50:51.106Z,98956.05
2018-03-08T09:53:18.490Z,98952.95
2018-03-08T09:55:45.873Z,98953.53
2018-03-08T09:58:13.285Z,98943.44
2018-03-08T10:00:40.689Z,98942.55
2018-03-08T10:03:08.077Z,98944.12
2018-03-08T10:05:35.469Z,98939.39
2018-03-08T10:08:02.865Z,98942.69
2018-03-08T10:10:30.267Z,98937.81
2018-03-08T10:12:57.683Z,98943.84
2018-03-08T10:15:25.066Z,98951.61
2018-03-08T10:17:52.457Z,98936.28
2018-03-08T10:20:19.862Z,98940.58
2018-03-08T10:22:47.274Z,98936.92
2018-03-08T10:25:14.657Z,98936.53
2018-03-08T10:27:42.054Z,98926.08
2018-03-08T10:30:09.430Z,98925.56
2018-03-08T10:32:36.821Z,98923.95
2018-03-08T10:35:04.221Z,98923.54
2018-03-08T10:37:31.649Z,98911.57
2018-03-08T10:39:59.033Z,98912.67
2018-03-08T10:44:53.842Z,98905.27
2018-03-08T10:47:21.205Z,98906.95
2018-03-08T10:49:48.618Z,98906.06
2018-03-08T10:52:16.021Z,98907.83
2018-03-08T10:54:43.423Z,98896.20
2018-03-08T10:57:10.825Z,98907.33
2018-03-08T10:59:38.225Z,98900.77
2018-03-08T11:02:11.097Z,98909.86
2018-03-08T11:04:38.489Z,98902.60
2018-03-08T11:07:05.890Z,98910.80
2018-03-08T11:09:33.313Z,98913.05
2018-03-08T11:12:00.717Z,98914.41
2018-03-08T11:14:28.103Z,98898.84
2018-03-08T11:16:55.496Z,98893.12
2018-03-08T11:19:22.889Z,98886.78
2018-03-08T11:21:50.290Z,98887.77
2018-03-08T11:24:17.698Z,98881.11
2018-03-08T11:26:45.085Z,98877.43
2018-03-08T11:29:12.479Z,98879.20
2018-03-08T11:31:40.710Z,98867.84
2018-03-08T11:34:08.121Z,98867.89
2018-03-08T11:36:35.494Z,98861.52
2018-03-08T11:39:05.217Z,98857.71
2018-03-08T11:41:31.086Z,98854.97
2018-03-08T11:43:58.469Z,98849.78
2018-03-08T11:46:25.874Z,98852.46
2018-03-08T11:48:53.261Z,98854.66
2018-03-08T11:51:20.646Z,98843.39
2018-03-08T11:53:48.062Z,98848.90
2018-03-08T11:56:15.456Z,98836.05
2018-03-08T11:58:42.825Z,98838.47
2018-03-08T12:01:10.230Z,98831.73
2018-03-08T12:03:37.614Z,98828.92
2018-03-08T12:06:04.993Z,98827.87
2018-03-08T12:08:33.237Z,98823.90
2018-03-08T12:11:00.628Z,98817.72
2018-03-08T12:13:28.085Z,98809.12
2018-03-08T12:15:55.487Z,98812.20
2018-03-08T12:18:22.887Z,98804.56
2018-03-08T12:20:50.610Z,98804.66
2018-03-08T12:23:18.021Z,98808.72
2018-03-08T12:25:45.406Z,98805.08
2018-03-08T12:28:12.803Z,98796.45
2018-03-08T12:30:40.473Z,98799.20
2018-03-08T12:33:09.760Z,98782.74
2018-03-08T12:35:37.150Z,98788.27
2018-03-08T12:38:04.554Z,98775.33
2018-03-08T12:40:31.945Z,98767.91
2018-03-08T12:42:59.326Z,98773.41
2018-03-08T12:45:26.994Z,98778.26
2018-03-08T12:47:54.373Z,98768.33
2018-03-08T12:50:21.789Z,98761.54
2018-03-08T12:52:49.190Z,98771.11
2018-03-08T12:55:16.569Z,98772.81
2018-03-08T12:57:43.953Z,98764.33
2018-03-08T13:00:11.376Z,98773.08
2018-03-08T13:02:38.743Z,98757.12
2018-03-08T13:05:06.126Z,98752.36
2018-03-08T13:07:33.534Z,98753.28
2018-03-08T13:10:00.932Z,98755.17
2018-03-08T13:12:28.316Z,98736.27
2018-03-08T13:14:55.748Z,98742.00
2018-03-08T13:17:23.130Z,98743.18
2018-03-08T13:19:50.519Z,98754.33
2018-03-08T13:22:17.958Z,98757.36
2018-03-08T13:24:45.350Z,98746.09
2018-03-08T13:27:12.734Z,98744.63
2018-03-08T13:29:40.168Z,98732.38
2018-03-08T13:32:07.574Z,98733.20
2018-03-08T13:34:34.959Z,98738.88
2018-03-08T13:37:02.367Z,98738.63
2018-03-08T13:39:29.761Z,98736.98
2018-03-08T13:41:57.194Z,98733.86
2018-03-08T13:44:24.567Z,98719.75
2018-03-08T13:46:51.943Z,98720.19
2018-03-08T13:49:31.173Z,98707.58
2018-03-08T13:51:58.573Z,98700.88
2018-03-08T13:54:25.971Z,98698.72
2018-03-08T13:56:53.402Z,98696.92
2018-03-08T13:59:20.795Z,98690.97
2018-03-08T14:01:48.183Z,98696.48
2018-03-08T14:04:15.581Z,98711.55
2018-03-08T14:06:42.972Z,98706.11
2018-03-08T14:09:10.373Z,98717.30
2018-03-08T14:11:37.785Z,98721.18
2018-03-08T14:14:05.181Z,98735.97
2018-03-08T14:16:32.550Z,98727.19
2018-03-08T14:18:59.968Z,98735.56
2018-03-08T14:21:27.354Z,98730.61
2018-03-08T14:23:54.732Z,98711.06
2018-03-08T14:26:22.129Z,98717.55
2018-03-08T14:28:49.519Z,98710.23
2018-03-08T14:31:16.908Z,98703.73
2018-03-08T14:33:44.323Z,98699.59
2018-03-08T14:36:11.694Z,98691.63
2018-03-08T14:38:39.081Z,98702.75
2018-03-08T14:41:06.483Z,98697.95
2018-03-08T14:43:33.866Z,98693.11
2018-03-08T14:46:01.249Z,98693.39
2018-03-08T14:48:28.650Z,98682.96
2018-03-08T14:50:56.042Z,98693.02
2018-03-08T14:53:23.434Z,98697.05
2018-03-08T14:55:50.830Z,98691.38
2018-03-08T14:58:18.232Z,98693.47
2018-03-08T15:00:45.613Z,98689.31
2018-03-08T15:03:13.009Z,98688.68
2018-03-08T15:05:41.314Z,98679.31
2018-03-08T15:08:08.702Z,98671.31
2018-03-08T15:10:36.116Z,98677.98
2018-03-08T15:13:03.503Z,98663.98
2018-03-08T15:15:30.885Z,98666.17
2018-03-08T15:17:58.285Z,98668.65
2018-03-08T15:20:25.669Z,98676.68
2018-03-08T15:22:53.066Z,98673.89
2018-03-08T15:25:20.478Z,98670.81
2018-03-08T15:27:47.873Z,98692.09
2018-03-08T15:30:15.258Z,98693.31
2018-03-08T15:32:42.661Z,98696.20
2018-03-08T15:35:10.042Z,98693.02
2018-03-08T15:37:37.431Z,98696.94
2018-03-08T15:40:04.888Z,98708.36
2018-03-08T15:42:32.219Z,98718.40
2018-03-08T15:44:59.601Z,98714.35
2018-03-08T15:47:27.054Z,98730.30
2018-03-08T15:49:54.409Z,98727.45
2018-03-08T15:52:21.793Z,98741.16
2018-03-08T15:54:49.189Z,98750.71
2018-03-08T15:57:16.573Z,98748.98
2018-03-08T15:59:43.962Z,98758.00
2018-03-08T16:02:11.358Z,98759.33
2018-03-08T16:04:38.746Z,98775.27
2018-03-08T16:07:20.502Z,98769.62
2018-03-08T16:13:04.707Z,98779.55
2018-03-08T16:15:32.127Z,98802.74
2018-03-08T16:17:59.549Z,98755.30
2018-03-08T16:20:26.969Z,98722.41
2018-03-08T16:22:54.346Z,98759.73
2018-03-08T16:25:21.734Z,98745.72
2018-03-08T16:27:49.156Z,98726.13
2018-03-08T16:30:16.540Z,98735.23
2018-03-08T16:32:43.921Z,98743.23
2018-03-08T16:35:11.365Z,98733.88
2018-03-08T16:37:38.725Z,98744.28
2018-03-08T16:40:06.098Z,98751.50
2018-03-08T16:42:33.502Z,98748.63
2018-03-08T16:45:00.877Z,98752.09
2018-03-08T16:47:28.961Z,98736.32
2018-03-08T16:49:56.373Z,98740.80
2018-03-08T16:52:23.762Z,98741.34
2018-03-08T16:54:51.146Z,98736.88
2018-03-08T16:57:18.570Z,98751.74
2018-03-08T16:59:45.954Z,98777.98
2018-03-08T17:02:13.341Z,98772.55
2018-03-08T17:04:40.743Z,98760.20
2018-03-08T17:07:08.177Z,98765.55
2018-03-08T17:09:35.623Z,98769.38
2018-03-08T17:12:03.397Z,98769.31
2018-03-08T17:14:32.988Z,98770.08
2018-03-08T17:17:02.126Z,98771.43
2018-03-08T17:19:31.234Z,98789.50
2018-03-08T17:21:59.779Z,98779.57
2018-03-08T17:24:27.174Z,98783.51
2018-03-08T17:26:55.657Z,98781.92
2018-03-08T17:29:23.362Z,98790.15
2018-03-08T17:31:50.754Z,98788.67
2018-03-08T17:34:18.196Z,98799.02
2018-03-08T17:36:46.115Z,98798.89
2018-03-08T17:39:13.525Z,98802.39
2018-03-08T17:41:41.564Z,98801.55
2018-03-08T17:44:09.021Z,98805.59
2018-03-08T17:46:36.414Z,98810.37
2018-03-08T17:49:04.409Z,98812.55
2018-03-08T17:51:33.664Z,98828.91
2018-03-08T17:54:11.276Z,98834.59
2018-03-08T17:56:39.589Z,98843.63
2018-03-08T17:59:06.968Z,98848.02
2018-03-08T18:01:34.353Z,98851.49
2018-03-08T18:04:01.746Z,98854.93
2018-03-08T18:06:29.141Z,98862.06
2018-03-08T18:08:56.629Z,98865.20
2018-03-08T18:11:23.958Z,98863.48
2018-03-08T18:13:51.418Z,98871.78
2018-03-08T18:16:19.628Z,98864.77
2018-03-08T18:18:47.031Z,98867.80
2018-03-08T18:21:14.640Z,98868.61
2018-03-08T18:23:42.033Z,98867.41
2018-03-08T18:26:09.468Z,98867.61
2018-03-08T18:28:36.841Z,98881.78
2018-03-08T18:31:04.249Z,98879.24
2018-03-08T18:33:31.642Z,98877.91
2018-03-08T18:35:59.071Z,98890.47
2018-03-08T18:38:26.470Z,98887.19
2018-03-08T18:40:53.854Z,98905.58
2018-03-08T18:43:21.266Z,98905.06
2018-03-08T18:45:48.685Z,98904.76
2018-03-08T18:48:16.089Z,98904.16
2018-03-08T18:50:43.534Z,98909.98
2018-03-08T18:53:10.943Z,98919.83
2018-03-08T18:55:38.366Z,98924.80
2018-03-08T18:58:17.678Z,98921.45
2018-03-08T19:00:45.362Z,98922.67
2018-03-08T19:03:12.745Z,98926.44
2018-03-08T19:05:40.163Z,98931.42
2018-03-08T19:08:07.553Z,98934.06
2018-03-08T19:10:34.945Z,98938.44
2018-03-08T19:13:02.367Z,98940.78
2018-03-08T19:15:29.755Z,98949.80
2018-03-08T19:17:57.172Z,98946.44
2018-03-08T19:20:24.591Z,98954.16
2018-03-08T19:22:51.971Z,98964.30
2018-03-08T19:25:19.358Z,98966.64
2018-03-08T19:27:46.806Z,98978.52
2018-03-08T19:30:14.225Z,98978.81
2018-03-08T19:32:41.611Z,98983.78
2018-03-08T19:35:09.006Z,98981.26
2018-03-08T19:37:36.387Z,98991.09
2018-03-08T19:40:04.937Z,98991.70
2018-03-08T19:42:32.356Z,98990.57
2018-03-08T19:44:59.762Z,99001.84
2018-03-08T19:47:27.163Z,98995.55
2018-03-08T19:49:54.567Z,99002.86
2018-03-08T19:52:21.978Z,99008.75
2018-03-08T19:54:49.370Z,99015.56
2018-03-08T19:57:16.776Z,99020.51
2018-03-08T19:59:44.194Z,99024.69
2018-03-08T20:02:11.838Z,99026.31
2018-03-08T20:04:39.286Z,99028.23
2018-03-08T20:07:06.682Z,99040.41
2018-03-08T20:09:34.141Z,99033.20
2018-03-08T20:12:01.602Z,99041.32
2018-03-08T20:14:29.009Z,99046.11
2018-03-08T20:16:56.406Z,99042.34
2018-03-08T20:19:23.883Z,99052.19
2018-03-08T20:21:51.296Z,99049.55
2018-03-08T20:24:18.734Z,99057.47
2018-03-08T20:26:46.191Z,99064.67
2018-03-08T20:29:13.610Z,99073.00
2018-03-08T20:31:41.001Z,99069.57
2018-03-08T20:34:08.426Z,99081.15
2018-03-08T20:36:35.813Z,99082.47
2018-03-08T20:39:03.250Z,99083.68
2018-03-08T20:41:30.622Z,99085.11
2018-03-08T20:43:58.006Z,99088.77
2018-03-08T20:46:25.395Z,99088.05
2018-03-08T20:48:52.815Z,99095.97
2018-03-08T20:51:20.193Z,99100.84
2018-03-08T20:53:47.577Z,99098.01
2018-03-08T20:56:14.978Z,99094.24
2018-03-08T20:58:42.362Z,99105.22
2018-03-08T21:01:09.750Z,99101.86
2018-03-08T21:03:37.146Z,99101.34
2018-03-08T21:06:04.558Z,99106.23
2018-03-08T21:08:31.948Z,99111.30
2018-03-08T21:10:59.351Z,99113.73
2018-03-08T21:13:26.733Z,99112.84
2018-03-08T21:15:54.114Z,99114.65
2018-03-08T21:18:21.732Z,99124.00
2018-03-08T21:20:49.121Z,99126.03
2018-03-08T21:23:16.513Z,99124.48
2018-03-08T21:25:43.918Z,99131.20
2018-03-08T21:28:11.296Z,99132.83
2018-03-08T21:30:38.689Z,99137.09
2018-03-08T21:33:06.091Z,99141.76
2018-03-08T21:35:33.478Z,99135.87
2018-03-08T21:38:00.868Z,99142.66
2018-03-08T21:40:28.266Z,99147.03
2018-03-08T21:42:55.653Z,99153.75
2018-03-08T21:45:23.038Z,99155.67
2018-03-08T21:47:50.442Z,99158.02
2018-03-08T21:50:17.830Z,99156.17
2018-03-08T21:52:45.257Z,99164.50
2018-03-08T21:55:12.761Z,99168.77
2018-03-08T21:57:40.157Z,99178.31
2018-03-08T22:00:07.538Z,99173.56
2018-03-08T22:02:34.945Z,99182.28
2018-03-08T22:05:02.329Z,99183.41
2018-03-08T22:07:29.714Z,99181.86
2018-03-08T22:09:57.114Z,99179.02
2018-03-08T22:12:24.502Z,99184.11
2018-03-08T22:14:51.890Z,99192.11
2018-03-08T22:17:19.297Z,99199.34
2018-03-08T22:19:46.685Z,99195.27
2018-03-08T22:22:14.079Z,99190.19
2018-03-08T22:24:41.476Z,99197.61
2018-03-08T22:27:08.874Z,99200.55
2018-03-08T22:29:36.258Z,99201.05
2018-03-08T22:32:03.669Z,99198.61
2018-03-08T22:34:31.062Z,99207.14
2018-03-08T22:36:58.449Z,99218.84
2018-03-08T22:39:25.848Z,99212.12
2018-03-08T22:41:53.238Z,99219.12
2018-03-08T22:44:20.622Z,99217.19
2018-03-08T22:46:48.033Z,99211.20
2018-03-08T22:49:15.422Z,99213.00
2018-03-08T22:51:42.809Z,99216.55
2018-03-08T22:54:10.197Z,99213.72
2018-03-08T22:56:37.582Z,99212.50
2018-03-08T22:59:04.969Z,99218.88
2018-03-08T23:04:51.201Z,99225.64
2018-03-08T23:07:18.593Z,99229.38
2018-03-08T23:09:45.974Z,99230.97
2018-03-08T23:12:13.366Z,99235.88
2018-03-08T23:14:40.778Z,99238.17
2018-03-08T23:17:08.158Z,99239.90
2018-03-08T23:19:35.559Z,99236.84
2018-03-08T23:22:02.966Z,99239.92
2018-03-08T23:24:30.353Z,99241.73
2018-03-08T23:26:57.749Z,99246.66
2018-03-08T23:29:25.164Z,99247.41
2018-03-08T23:31:52.571Z,99248.57
2018-03-08T23:34:19.957Z,99250.17
2018-03-08T23:36:47.371Z,99254.83
2018-03-08T23:39:14.765Z,99264.50
2018-03-08T23:41:42.177Z,99259.31
2018-03-08T23:44:09.580Z,99266.52
2018-03-08T23:46:36.961Z,99262.62
2018-03-08T23:49:04.390Z,99266.59
2018-03-08T23:51:31.790Z,99266.77
2018-03-08T23:53:59.181Z,99267.44
2018-03-08T23:56:26.570Z,99264.67
2018-03-08T23:58:53.989Z,99273.30
